KPSP

Palm Springs International Airport

Palm Springs, California, USA
KPSP 161736Z 1618/1718 VRB04KT P6SM SCT200 FM162100 11008KT P6SM SCT090 SCT200 FM170200 32012KT P6SM SCT200 FM170800 VRB04KT P6SM SCT200
Issued Valid From Valid To
Jul-16 @ 17:36 UTC
(2 hours ago)
Jul-16 @ 18:00 UTC
(2 hours ago)
Jul-17 @ 18:00 UTC
(in 22 hours)
Jul-16 @ 18:00 to Jul-16 @ 21:00
KPSP 161736Z 1618/1718 VRB04KT P6SM SCT200
Wind Visibility Clouds
Variable at 4 knots Greater than 6 miles
  • Scattered at 20,000' AGL
From Jul-16 @ 21:00 to Jul-17 @ 02:00
FM162100 11008KT P6SM SCT090 SCT200
Wind Visibility Clouds
110° at 8 knots Greater than 6 miles
  • Scattered at 9,000' AGL
  • Scattered at 20,000' AGL
From Jul-17 @ 02:00 to Jul-17 @ 08:00
FM170200 32012KT P6SM SCT200
Wind Visibility Clouds
320° at 12 knots Greater than 6 miles
  • Scattered at 20,000' AGL
From Jul-17 @ 08:00 to Jul-17 @ 18:00
FM170800 VRB04KT P6SM SCT200
Wind Visibility Clouds
Variable at 4 knots Greater than 6 miles
  • Scattered at 20,000' AGL
KPSP 161736Z 1618/1718 VRB04KT P6SM SCT200 FM162100 11008KT P6SM SCT090 SCT200 FM170200 32012KT P6SM SCT200 FM170800 VRB04KT P6SM SCT200
Issued Jul-16 @ 17:36 UTC
(2 hours ago)
Valid From Jul-16 @ 18:00 UTC
(2 hours ago)
Valid To Jul-17 @ 18:00 UTC
(in 22 hours)
Jul-16 @ 18:00 - Jul-16 @ 21:00
Wind Visibility
Variable at 4 knots Greater than 6 miles
Clouds
  • Scattered at 20,000' AGL
From Jul-16 @ 21:00 - Jul-17 @ 02:00
Wind Visibility
110° at 8 knots Greater than 6 miles
Clouds
  • Scattered at 9,000' AGL
  • Scattered at 20,000' AGL
From Jul-17 @ 02:00 - Jul-17 @ 08:00
Wind Visibility
320° at 12 knots Greater than 6 miles
Clouds
  • Scattered at 20,000' AGL
From Jul-17 @ 08:00 - Jul-17 @ 18:00
Wind Visibility
Variable at 4 knots Greater than 6 miles
Clouds
  • Scattered at 20,000' AGL